Time;durP1;ratioP1;P1;durP2;ratioP2;P2;SDS_P1;SDS_P2;PMS_P1;PMS_P2;Temp;Humidity;BMP_temperature;BMP_pressure;BME280_temperature;BME280_humidity;BME280_pressure;Samples;Min_cycle;Max_cycle;Signal;HPM_P1;HPM_P2
2022/03/22 00:01:41;;;;;;;0.30;0.20;;;;;;;5.96;35.51;96547.16;5095033;28;20420;-53
2022/03/22 00:04:10;;;;;;;0.60;0.40;;;;;;;6.59;34.98;96550.59;5095364;28;20485;-53
2022/03/22 00:06:41;;;;;;;2.20;0.93;;;;;;;6.16;34.23;96544.41;5095387;28;20456;-53
2022/03/22 00:09:10;;;;;;;0.43;0.27;;;;;;;5.20;32.69;96469.94;5094054;28;20463;-53
2022/03/22 00:11:45;;;;;;;0.40;0.30;;;;;;;4.13;33.81;96277.13;5095324;28;20424;-53
2022/03/22 00:14:14;;;;;;;0.30;0.20;;;;;;;5.72;32.92;96537.28;5095135;28;20514;-53
2022/03/22 00:17:04;;;;;;;0.83;0.50;;;;;;;5.69;32.43;96543.00;5095217;28;20452;-53
2022/03/22 00:19:52;;;;;;;0.40;0.30;;;;;;;6.01;32.60;96533.34;5094588;28;20491;-53
2022/03/22 00:22:22;;;;;;;0.50;0.50;;;;;;;6.26;35.80;96532.41;5095009;28;20515;-53
2022/03/22 00:24:51;;;;;;;0.30;0.20;;;;;;;6.18;33.33;96508.94;5094507;28;20475;-53
2022/03/22 00:27:19;;;;;;;0.40;0.30;;;;;;;6.23;33.03;96497.78;5094873;28;20804;-53
2022/03/22 00:29:48;;;;;;;0.40;0.30;;;;;;;6.45;34.14;96527.22;5094925;28;20431;-54
2022/03/22 00:32:17;;;;;;;0.50;0.50;;;;;;;5.11;32.68;96340.59;5094389;28;20904;-53
2022/03/22 00:34:49;;;;;;;0.30;0.20;;;;;;;5.84;34.59;96498.00;5094811;28;20512;-54
2022/03/22 00:37:24;;;;;;;0.97;0.30;;;;;;;5.46;33.79;96516.38;5093955;28;20791;-53
2022/03/22 00:39:56;;;;;;;2.00;0.50;;;;;;;5.28;33.75;96482.06;5094545;28;20464;-54
2022/03/22 00:42:24;;;;;;;0.30;0.30;;;;;;;5.24;33.80;96518.44;5094843;28;20448;-53
2022/03/22 00:44:54;;;;;;;3.80;0.63;;;;;;;5.39;34.04;96491.94;5094178;28;20472;-53
2022/03/22 00:47:23;;;;;;;1.50;0.80;;;;;;;5.30;33.08;96512.38;5094801;28;20824;-53
2022/03/22 00:49:52;;;;;;;0.60;0.57;;;;;;;5.71;34.97;96515.47;5094269;28;20504;-53
2022/03/22 00:52:22;;;;;;;0.30;0.20;;;;;;;5.88;33.58;96517.63;5094135;28;20447;-54
2022/03/22 00:54:52;;;;;;;0.30;0.20;;;;;;;6.14;34.78;96510.41;5093873;28;20464;-53
2022/03/22 00:57:21;;;;;;;0.30;0.20;;;;;;;6.08;33.74;96495.44;5094320;28;20456;-53
2022/03/22 01:00:05;;;;;;;0.30;0.20;;;;;;;5.71;34.04;96507.56;5094124;28;20548;-54
2022/03/22 01:02:35;;;;;;;0.40;0.20;;;;;;;5.19;33.95;96428.91;5094024;28;20471;-53
2022/03/22 01:05:07;;;;;;;3.27;0.70;;;;;;;5.35;33.59;96483.66;5093765;28;20515;-53
2022/03/22 01:07:37;;;;;;;0.30;0.20;;;;;;;5.58;33.97;96496.28;5093370;28;20424;-53
2022/03/22 01:10:08;;;;;;;0.30;0.20;;;;;;;5.66;37.44;96493.44;5094209;28;20503;-53
2022/03/22 01:12:38;;;;;;;0.40;0.40;;;;;;;5.43;34.75;96490.50;5093554;28;20444;-53
2022/03/22 01:15:10;;;;;;;0.30;0.20;;;;;;;5.55;33.53;96480.94;5093860;28;20921;-53
2022/03/22 01:17:39;;;;;;;0.30;0.20;;;;;;;5.14;35.37;96349.88;5093133;28;20432;-53
2022/03/22 01:20:10;;;;;;;0.40;0.40;;;;;;;5.78;33.10;96479.41;5092698;28;20525;-53
2022/03/22 01:22:42;;;;;;;0.40;0.20;;;;;;;6.01;33.22;96478.91;5093610;28;21019;-53
2022/03/22 01:25:13;;;;;;;0.30;0.30;;;;;;;5.67;33.40;96474.78;5093433;28;20436;-53
2022/03/22 01:27:46;;;;;;;0.40;0.33;;;;;;;5.88;34.78;96473.72;5093616;28;20940;-53
2022/03/22 01:30:16;;;;;;;0.30;0.20;;;;;;;5.64;34.48;96474.44;5093077;28;20497;-54
2022/03/22 01:32:45;;;;;;;0.40;0.40;;;;;;;5.37;36.52;96444.81;5093484;28;20460;-53
2022/03/22 01:35:17;;;;;;;0.30;0.20;;;;;;;5.43;33.84;96466.81;5093335;28;20908;-54
2022/03/22 01:37:48;;;;;;;0.53;0.53;;;;;;;5.77;32.84;96462.00;5093463;28;21000;-53
2022/03/22 01:40:18;;;;;;;0.30;0.30;;;;;;;5.87;34.08;96471.31;5093390;28;20472;-54
2022/03/22 01:42:47;;;;;;;0.30;0.20;;;;;;;5.81;33.30;96472.09;5093006;28;20428;-54
2022/03/22 01:45:17;;;;;;;0.30;0.20;;;;;;;5.74;36.11;96462.41;5093603;28;20433;-53
2022/03/22 01:47:47;;;;;;;0.30;0.30;;;;;;;6.13;35.23;96464.03;5092382;28;20439;-53
2022/03/22 01:50:17;;;;;;;0.30;0.20;;;;;;;5.65;33.38;96457.63;5092616;28;20436;-54
2022/03/22 01:52:48;;;;;;;2.53;1.50;;;;;;;5.29;34.31;96468.69;5092897;28;20520;-54
2022/03/22 01:55:19;;;;;;;0.30;0.20;;;;;;;5.27;33.78;96473.34;5093230;28;20450;-54
2022/03/22 01:57:48;;;;;;;1.03;1.03;;;;;;;5.69;35.94;96459.59;5093222;28;20425;-53
2022/03/22 02:00:20;;;;;;;0.57;0.53;;;;;;;5.39;33.87;96429.63;5092017;28;20475;-54
2022/03/22 02:05:57;;;;;;;0.37;0.30;;;;;;;6.01;33.89;96468.38;5092791;28;20425;-54
2022/03/22 02:08:29;;;;;;;0.30;0.20;;;;;;;5.89;33.69;96449.03;5092018;28;20468;-53
2022/03/22 02:11:00;;;;;;;0.73;0.73;;;;;;;6.17;35.72;96453.91;5093185;28;20551;-54
2022/03/22 02:13:31;;;;;;;0.30;0.30;;;;;;;6.19;37.52;96457.94;5092340;28;20436;-54
2022/03/22 02:16:02;;;;;;;0.30;0.20;;;;;;;6.50;34.06;96458.91;5092417;28;20519;-53
2022/03/22 02:18:34;;;;;;;1.20;0.80;;;;;;;6.65;36.65;96449.66;5091946;28;20437;-54
2022/03/22 02:21:04;;;;;;;0.70;0.63;;;;;;;6.66;33.56;96455.69;5092259;28;20494;-53
2022/03/22 02:23:49;;;;;;;0.30;0.30;;;;;;;6.69;35.63;96450.00;5092436;28;20449;-52
2022/03/22 02:26:18;;;;;;;0.40;0.33;;;;;;;6.15;32.79;96433.03;5091782;28;20842;-53
2022/03/22 02:28:47;;;;;;;0.40;0.40;;;;;;;4.54;34.98;96288.13;5091894;28;20747;-53
2022/03/22 02:31:15;;;;;;;0.30;0.20;;;;;;;5.72;34.22;96432.88;5091633;28;20456;-53
2022/03/22 02:33:44;;;;;;;0.30;0.20;;;;;;;5.87;38.54;96450.25;5091957;28;20477;-53
2022/03/22 02:36:13;;;;;;;0.30;0.20;;;;;;;5.84;37.66;96440.13;5092150;28;20464;-52
2022/03/22 02:38:41;;;;;;;0.30;0.30;;;;;;;5.74;35.24;96437.97;5092102;28;20508;-54
2022/03/22 02:41:16;;;;;;;0.30;0.20;;;;;;;5.81;34.63;96443.97;5091828;28;20507;-54
2022/03/22 02:43:45;;;;;;;0.30;0.20;;;;;;;5.96;35.97;96447.16;5092084;28;20427;-52
2022/03/22 02:46:14;;;;;;;0.40;0.30;;;;;;;4.54;34.23;96240.88;5091713;28;20485;-52
2022/03/22 02:48:43;;;;;;;0.40;0.30;;;;;;;5.79;34.88;96444.19;5091703;28;20428;-53
2022/03/22 02:51:11;;;;;;;0.30;0.20;;;;;;;5.89;34.01;96424.53;5091878;28;20459;-53
2022/03/22 02:53:39;;;;;;;0.30;0.20;;;;;;;6.18;41.17;96453.66;5091844;28;20901;-53
2022/03/22 02:56:09;;;;;;;0.30;0.20;;;;;;;6.11;40.74;96452.09;5092031;28;20455;-53
2022/03/22 02:58:38;;;;;;;1.80;1.80;;;;;;;6.06;35.77;96455.38;5091270;28;20800;-53
2022/03/22 03:01:07;;;;;;;0.30;0.20;;;;;;;5.81;35.45;96443.16;5090651;28;20575;-53
2022/03/22 03:03:36;;;;;;;0.57;0.47;;;;;;;5.90;35.83;96450.63;5091591;28;20808;-53
2022/03/22 03:06:06;;;;;;;0.30;0.20;;;;;;;5.58;34.56;96449.78;5091867;28;20460;-53
2022/03/22 03:08:34;;;;;;;0.30;0.20;;;;;;;5.74;34.24;96446.63;5090840;28;20986;-53
2022/03/22 03:11:05;;;;;;;0.37;0.30;;;;;;;5.77;34.72;96448.84;5091340;28;20433;-53
2022/03/22 03:16:17;;;;;;;0.37;0.30;;;;;;;5.75;34.71;96450.06;5091126;28;20992;-53
2022/03/22 03:18:45;;;;;;;0.30;0.20;;;;;;;6.01;35.13;96444.69;5091499;28;20939;-52
2022/03/22 03:21:14;;;;;;;0.40;0.20;;;;;;;5.55;33.71;96388.91;5091744;28;20549;-52
2022/03/22 03:23:42;;;;;;;0.30;0.27;;;;;;;5.97;34.18;96437.44;5091450;28;20439;-52
2022/03/22 03:26:11;;;;;;;0.30;0.30;;;;;;;6.16;34.67;96450.44;5091210;28;21097;-52
2022/03/22 03:28:39;;;;;;;0.40;0.40;;;;;;;6.16;35.16;96450.44;5091304;28;20440;-52
2022/03/22 03:31:08;;;;;;;0.30;0.30;;;;;;;6.18;35.09;96437.06;5091452;28;20432;-52
2022/03/22 03:33:38;;;;;;;1.00;1.00;;;;;;;6.50;38.51;96436.00;5090934;28;20431;-52
2022/03/22 03:36:06;;;;;;;0.53;0.50;;;;;;;6.01;33.71;96428.91;5091508;28;20467;-52
2022/03/22 03:38:41;;;;;;;0.30;0.20;;;;;;;6.16;35.04;96431.22;5091018;28;20424;-52
2022/03/22 03:43:57;;;;;;;0.97;0.87;;;;;;;5.18;34.33;96261.75;5091279;28;20523;-53
2022/03/22 03:49:12;;;;;;;0.30;0.20;;;;;;;6.50;33.46;96433.38;5090884;28;20999;-53
2022/03/22 03:51:41;;;;;;;0.60;0.60;;;;;;;6.78;33.97;96440.81;5090988;28;20527;-53
2022/03/22 03:54:09;;;;;;;0.30;0.20;;;;;;;6.75;33.12;96435.97;5091148;28;20515;-53
2022/03/22 03:56:38;;;;;;;0.50;0.50;;;;;;;6.65;33.59;96433.03;5091327;28;20460;-54
2022/03/22 03:59:06;;;;;;;0.30;0.30;;;;;;;7.02;35.02;96432.03;5091380;28;20840;-53
2022/03/22 04:01:35;;;;;;;0.97;0.97;;;;;;;6.87;33.26;96452.69;5091365;28;20491;-53
2022/03/22 04:04:04;;;;;;;0.30;0.20;;;;;;;6.99;33.94;96428.00;5091310;28;20428;-53
2022/03/22 04:06:34;;;;;;;0.50;0.40;;;;;;;6.79;34.64;96427.41;5091105;28;20459;-53
2022/03/22 04:09:03;;;;;;;0.30;0.20;;;;;;;6.96;34.90;96430.28;5090663;28;21023;-54
2022/03/22 04:11:32;;;;;;;0.57;0.50;;;;;;;6.71;33.48;96421.59;5091259;28;20450;-53
2022/03/22 04:14:00;;;;;;;0.40;0.40;;;;;;;7.05;35.68;96428.97;5094798;28;20471;-54
2022/03/22 04:16:29;;;;;;;0.50;0.30;;;;;;;7.24;35.50;96446.38;5094664;28;20433;-53
2022/03/22 04:18:57;;;;;;;0.40;0.40;;;;;;;6.73;37.55;96394.03;5094655;28;20428;-53
2022/03/22 04:21:26;;;;;;;0.30;0.20;;;;;;;6.24;34.05;96415.97;5094813;28;20563;-53
2022/03/22 04:23:56;;;;;;;3.03;2.83;;;;;;;6.69;33.92;96428.94;5094041;28;20963;-54
2022/03/22 04:26:24;;;;;;;0.30;0.20;;;;;;;6.86;35.59;96424.69;5095033;28;20858;-54
2022/03/22 04:34:40;;;;;;;0.30;0.23;;;;;;;6.89;38.63;96382.09;5093840;28;21055;-53
2022/03/22 04:37:12;;;;;;;0.40;0.23;;;;;;;6.94;43.30;96408.59;5094648;28;20432;-53
2022/03/22 04:39:44;;;;;;;0.40;0.30;;;;;;;6.88;33.51;96402.38;5094486;28;20432;-53
2022/03/22 04:42:14;;;;;;;0.30;0.20;;;;;;;6.99;32.96;96409.56;5094360;28;20617;-53
2022/03/22 04:44:43;;;;;;;0.30;0.20;;;;;;;6.99;32.74;96404.28;5093493;28;20750;-53
2022/03/22 04:47:11;;;;;;;0.30;0.20;;;;;;;6.66;33.17;96406.47;5094558;28;20467;-53
2022/03/22 04:49:40;;;;;;;0.40;0.30;;;;;;;6.36;33.97;96410.81;5094375;28;20429;-53
2022/03/22 04:57:42;;;;;;;0.57;0.57;;;;;;;6.51;34.34;96405.19;5093731;28;20511;-53
2022/03/22 05:00:12;;;;;;;1.70;1.70;;;;;;;6.13;34.94;96398.22;5094796;28;20449;-53
2022/03/22 05:02:41;;;;;;;0.73;0.73;;;;;;;5.78;34.58;96332.09;5094004;28;20472;-53
2022/03/22 05:05:10;;;;;;;0.30;0.20;;;;;;;6.36;34.62;96400.25;5093987;28;20428;-53
2022/03/22 05:07:39;;;;;;;0.77;0.47;;;;;;;6.52;35.56;96402.34;5093562;28;20465;-54
2022/03/22 05:10:11;;;;;;;0.30;0.20;;;;;;;6.50;34.28;96404.41;5093665;28;20519;-53
2022/03/22 05:12:42;;;;;;;0.80;0.80;;;;;;;6.56;33.94;96400.06;5093494;28;20464;-53
2022/03/22 05:15:11;;;;;;;0.30;0.20;;;;;;;6.42;34.98;96396.78;5092995;28;20475;-53
2022/03/22 05:17:40;;;;;;;0.30;0.20;;;;;;;6.73;34.35;96396.66;5093782;28;20447;-53
2022/03/22 05:20:10;;;;;;;0.40;0.40;;;;;;;5.68;35.27;96207.34;5093577;28;20776;-53
2022/03/22 05:22:39;;;;;;;0.30;0.30;;;;;;;6.87;33.09;96395.50;5093176;28;20471;-53
2022/03/22 05:25:10;;;;;;;0.50;0.50;;;;;;;7.10;33.82;96397.47;5093624;28;20512;-53
2022/03/22 05:27:39;;;;;;;0.47;0.40;;;;;;;7.09;33.37;96382.69;5093050;28;20483;-53
2022/03/22 05:30:08;;;;;;;0.40;0.30;;;;;;;7.39;33.95;96385.34;5093168;28;20523;-53
2022/03/22 05:32:37;;;;;;;0.30;0.20;;;;;;;7.70;32.94;96385.13;5093305;28;20943;-53
2022/03/22 05:35:06;;;;;;;1.03;1.03;;;;;;;7.76;36.00;96388.69;5093266;28;20440;-53
2022/03/22 05:37:34;;;;;;;0.50;0.50;;;;;;;7.92;32.14;96390.72;5093601;28;20504;-53
2022/03/22 05:40:03;;;;;;;5.20;0.30;;;;;;;8.10;32.90;96386.13;5093156;28;20815;-53
2022/03/22 05:42:36;;;;;;;0.97;0.97;;;;;;;8.08;32.69;96376.84;5092892;28;21068;-53
2022/03/22 05:45:06;;;;;;;0.50;0.50;;;;;;;8.24;32.70;96379.63;5092856;28;20486;-51
2022/03/22 05:47:36;;;;;;;0.40;0.30;;;;;;;7.93;32.63;96360.63;5092853;28;21015;-52
2022/03/22 05:50:05;;;;;;;0.30;0.20;;;;;;;7.94;35.57;96341.13;5092876;28;20425;-51
2022/03/22 05:52:34;;;;;;;0.40;0.30;;;;;;;8.12;32.36;96367.44;5092750;28;20874;-51
2022/03/22 05:55:02;;;;;;;0.47;0.37;;;;;;;8.04;32.35;96359.84;5093133;28;20486;-52
2022/03/22 05:57:31;;;;;;;0.70;0.70;;;;;;;6.84;31.87;96153.53;5092866;28;20471;-52
2022/03/22 06:00:01;;;;;;;14.27;2.10;;;;;;;8.30;35.82;96370.81;5092593;28;20432;-52
2022/03/22 06:02:37;;;;;;;0.40;0.40;;;;;;;8.59;37.80;96347.13;5092812;28;20479;-52
2022/03/22 06:05:08;;;;;;;0.37;0.33;;;;;;;8.87;34.60;96353.31;5092665;28;20463;-52
2022/03/22 06:07:37;;;;;;;0.40;0.33;;;;;;;9.02;33.08;96352.00;5092260;28;20472;-51
2022/03/22 06:10:07;;;;;;;1.03;0.57;;;;;;;9.46;32.14;96327.50;5091736;28;20436;-51
2022/03/22 06:12:38;;;;;;;0.40;0.30;;;;;;;9.63;34.11;96336.25;5092815;28;20460;-52
2022/03/22 06:15:16;;;;;;;2.63;1.43;;;;;;;9.69;34.86;96406.00;5092667;28;20515;-51
2022/03/22 06:17:49;;;;;;;0.77;0.77;;;;;;;9.92;33.65;96343.09;5092373;28;20464;-50
2022/03/22 06:20:18;;;;;;;0.40;0.30;;;;;;;9.74;29.65;96324.78;5092774;28;20433;-50
2022/03/22 06:22:48;;;;;;;0.40;0.40;;;;;;;9.86;32.89;96332.69;5092438;28;20521;-50
2022/03/22 06:25:17;;;;;;;0.50;0.40;;;;;;;10.16;34.05;96323.41;5092383;28;20437;-50
2022/03/22 06:27:48;;;;;;;0.40;0.30;;;;;;;10.01;32.08;96286.06;5092352;28;20535;-50
2022/03/22 06:30:18;;;;;;;0.73;0.73;;;;;;;10.25;29.31;96315.03;5091418;28;20433;-50
2022/03/22 06:32:48;;;;;;;1.60;1.60;;;;;;;10.86;30.92;96328.09;5092058;28;20511;-49
2022/03/22 06:35:18;;;;;;;1.20;1.20;;;;;;;10.70;29.45;96331.63;5091455;28;20551;-49
2022/03/22 06:37:48;;;;;;;0.50;0.40;;;;;;;10.73;29.53;96329.25;5092699;28;20508;-49
2022/03/22 06:40:18;;;;;;;0.63;0.40;;;;;;;11.36;28.29;96307.47;5092424;28;20520;-49
2022/03/22 06:42:48;;;;;;;1.00;1.00;;;;;;;12.08;35.92;96320.38;5092070;28;20571;-49
2022/03/22 06:45:17;;;;;;;1.07;1.07;;;;;;;12.10;28.48;96328.91;5091581;28;20432;-49
2022/03/22 06:47:46;;;;;;;0.50;0.50;;;;;;;11.16;27.26;96312.53;5092049;28;20427;-49
2022/03/22 06:50:16;;;;;;;8.13;0.40;;;;;;;11.85;29.49;96326.03;5092122;28;20522;-49
2022/03/22 06:52:45;;;;;;;0.60;0.53;;;;;;;11.89;29.09;96327.13;5091962;28;20436;-49
2022/03/22 06:55:16;;;;;;;2.10;1.33;;;;;;;11.68;27.17;96322.66;5092381;28;20451;-49
2022/03/22 06:57:44;;;;;;;0.60;0.40;;;;;;;11.24;27.34;96261.69;5091924;28;21069;-50
2022/03/22 07:00:19;;;;;;;0.40;0.30;;;;;;;12.23;28.02;96325.81;5092482;28;20886;-50
2022/03/22 07:02:50;;;;;;;1.23;1.13;;;;;;;12.53;27.44;96325.22;5091926;28;20476;-50
2022/03/22 07:05:19;;;;;;;0.93;0.90;;;;;;;12.69;25.95;96319.75;5092277;28;20471;-50
2022/03/22 07:07:47;;;;;;;0.83;0.70;;;;;;;13.21;27.03;96308.28;5091721;28;20524;-50
2022/03/22 07:10:18;;;;;;;0.40;0.40;;;;;;;12.61;26.38;96295.47;5091604;28;20523;-51
2022/03/22 07:12:51;;;;;;;0.60;0.53;;;;;;;12.35;26.19;96294.53;5091628;28;20472;-51
2022/03/22 07:15:23;;;;;;;0.60;0.40;;;;;;;13.03;26.81;96301.53;5091683;28;20421;-52
2022/03/22 07:17:54;;;;;;;0.60;0.60;;;;;;;13.31;25.62;96289.66;5091107;28;20827;-52
2022/03/22 07:20:23;;;;;;;0.77;0.60;;;;;;;13.65;25.93;96298.81;5091467;28;20976;-53
2022/03/22 07:22:53;;;;;;;3.03;0.67;;;;;;;13.41;25.69;96286.25;5090987;28;20476;-53
2022/03/22 07:25:22;;;;;;;1.37;1.23;;;;;;;13.84;27.47;96296.44;5092007;28;20471;-54
2022/03/22 07:27:51;;;;;;;0.70;0.70;;;;;;;13.61;24.84;96281.75;5091589;28;20519;-54
2022/03/22 07:30:19;;;;;;;1.30;0.70;;;;;;;13.47;25.77;96293.19;5091929;28;20519;-55
2022/03/22 07:32:47;;;;;;;0.47;0.37;;;;;;;13.93;25.80;96274.34;5091741;28;20784;-56
2022/03/22 07:35:19;;;;;;;0.40;0.30;;;;;;;14.22;25.34;96274.56;5091565;28;20516;-56
2022/03/22 07:37:49;;;;;;;1.37;0.77;;;;;;;14.19;25.10;96271.66;5091386;28;20417;-56
2022/03/22 07:40:20;;;;;;;0.63;0.60;;;;;;;14.18;25.73;96272.72;5091403;28;20435;-56
2022/03/22 07:42:48;;;;;;;0.70;0.40;;;;;;;14.66;24.43;96272.13;5090261;28;20900;-56
2022/03/22 07:45:19;;;;;;;0.70;0.70;;;;;;;15.42;26.58;96242.41;5091386;28;21005;-55
2022/03/22 07:47:48;;;;;;;2.00;1.57;;;;;;;15.14;24.01;96250.03;5095381;28;20981;-55
2022/03/22 07:53:07;;;;;;;0.60;0.60;;;;;;;15.48;24.66;96246.69;5095437;28;20544;-55
2022/03/22 07:55:38;;;;;;;0.90;0.90;;;;;;;15.98;23.10;96246.31;5095061;28;20416;-55
2022/03/22 07:58:08;;;;;;;0.40;0.40;;;;;;;16.48;24.20;96256.53;5095134;28;20530;-55
2022/03/22 08:00:39;;;;;;;6.00;1.60;;;;;;;16.91;22.40;96256.63;5094909;28;20435;-55
2022/03/22 08:03:10;;;;;;;0.67;0.67;;;;;;;16.66;23.70;96247.00;5094709;28;20518;-55
2022/03/22 08:05:41;;;;;;;1.10;1.10;;;;;;;15.93;24.02;96253.56;5095357;28;20954;-55
2022/03/22 08:08:09;;;;;;;0.87;0.87;;;;;;;16.44;22.74;96284.16;5094906;28;20525;-54
2022/03/22 08:10:58;;;;;;;0.70;0.70;;;;;;;15.82;23.19;96173.44;5094716;28;20436;-54
2022/03/22 08:13:27;;;;;;;0.60;0.50;;;;;;;17.10;25.32;96236.06;5094539;28;20454;-54
2022/03/22 08:15:56;;;;;;;0.90;0.50;;;;;;;16.92;23.66;96234.94;5094847;28;21013;-55
2022/03/22 08:18:24;;;;;;;0.60;0.50;;;;;;;16.49;23.08;96212.63;5095002;28;20485;-54
2022/03/22 08:20:54;;;;;;;0.90;0.40;;;;;;;17.37;22.47;96228.19;5094710;28;20993;-54
2022/03/22 08:23:23;;;;;;;0.67;0.63;;;;;;;16.18;23.74;96230.09;5094487;28;20991;-54
2022/03/22 08:25:52;;;;;;;0.50;0.33;;;;;;;16.64;24.03;96233.13;5094872;28;20503;-54
2022/03/22 08:28:21;;;;;;;1.43;1.33;;;;;;;16.69;23.04;96229.59;5094936;28;20447;-54
2022/03/22 08:30:49;;;;;;;0.97;0.97;;;;;;;16.96;24.14;96213.72;5094733;28;20459;-53
2022/03/22 08:33:18;;;;;;;0.67;0.60;;;;;;;17.17;23.99;96207.03;5094143;28;20438;-53
2022/03/22 08:35:49;;;;;;;0.50;0.50;;;;;;;17.60;23.97;96208.56;5094536;28;20467;-53
2022/03/22 08:38:20;;;;;;;0.40;0.40;;;;;;;17.39;22.74;96212.59;5094501;28;20515;-53
2022/03/22 08:40:50;;;;;;;0.87;0.40;;;;;;;16.60;23.75;96111.63;5094693;28;20432;-53
2022/03/22 08:43:19;;;;;;;0.60;0.60;;;;;;;17.39;23.40;96193.84;5094395;28;20554;-54
2022/03/22 08:45:48;;;;;;;1.03;0.83;;;;;;;17.94;23.78;96194.06;5094738;28;20428;-59
2022/03/22 08:48:16;;;;;;;0.40;0.40;;;;;;;17.86;23.29;96173.31;5093669;28;20464;-59
2022/03/22 08:50:46;;;;;;;0.60;0.60;;;;;;;18.08;22.35;96178.81;5094160;28;20936;-58
2022/03/22 08:53:16;;;;;;;0.60;0.60;;;;;;;17.85;22.71;96150.25;5094470;28;20464;-58
2022/03/22 08:55:52;;;;;;;0.70;0.70;;;;;;;18.98;24.68;96165.53;5094568;28;20427;-57
2022/03/22 08:58:21;;;;;;;0.70;0.70;;;;;;;17.72;22.71;96167.88;5093841;28;20498;-49
2022/03/22 09:00:50;;;;;;;1.73;0.67;;;;;;;17.78;22.70;96154.09;5093854;28;20897;-48
2022/03/22 09:03:19;;;;;;;4.63;1.10;;;;;;;17.88;22.35;96152.34;5093756;28;20557;-48
2022/03/22 09:08:34;;;;;;;1.53;1.47;;;;;;;18.46;23.02;96152.59;5093622;28;20980;-48
2022/03/22 09:11:04;;;;;;;0.60;0.60;;;;;;;18.07;23.15;96163.78;5093814;28;20500;-48
2022/03/22 09:13:38;;;;;;;0.60;0.60;;;;;;;18.87;22.43;96162.25;5094042;28;20859;-48
2022/03/22 09:16:09;;;;;;;0.70;0.70;;;;;;;17.62;23.26;96162.69;5092984;28;20515;-48
2022/03/22 09:18:38;;;;;;;2.30;0.40;;;;;;;19.14;22.85;96163.31;5093942;28;20424;-48
2022/03/22 09:21:06;;;;;;;0.70;0.67;;;;;;;18.65;22.89;96170.22;5094004;28;20425;-48
2022/03/22 09:23:37;;;;;;;0.83;0.83;;;;;;;18.98;23.00;96170.88;5093586;28;20868;-48
2022/03/22 09:26:06;;;;;;;0.80;0.77;;;;;;;19.57;22.25;96169.88;5093644;28;20545;-48
2022/03/22 09:28:35;;;;;;;8.83;0.93;;;;;;;19.53;21.85;96171.59;5093428;28;20424;-48
2022/03/22 09:31:07;;;;;;;1.17;0.97;;;;;;;19.85;21.85;96122.09;5093212;28;20777;-48
2022/03/22 09:33:36;;;;;;;0.90;0.90;;;;;;;19.98;23.05;96165.09;5093376;28;20420;-48
2022/03/22 09:36:06;;;;;;;0.80;0.80;;;;;;;18.93;22.80;96171.81;5092903;28;20546;-48
2022/03/22 09:38:35;;;;;;;1.13;0.87;;;;;;;19.66;22.37;96188.78;5093080;28;20448;-49
2022/03/22 09:41:03;;;;;;;0.90;0.90;;;;;;;19.26;22.79;96169.72;5092869;28;20507;-49
2022/03/22 09:43:37;;;;;;;0.57;0.57;;;;;;;19.28;23.28;96150.59;5093508;28;20425;-49
2022/03/22 09:46:09;;;;;;;0.70;0.70;;;;;;;18.87;23.30;96115.81;5093036;28;20835;-49
2022/03/22 09:48:38;;;;;;;0.83;0.83;;;;;;;18.24;24.04;96172.09;5093173;28;20463;-49
2022/03/22 09:53:53;;;;;;;0.50;0.50;;;;;;;19.24;23.18;96158.50;5092976;28;20421;-49
2022/03/22 09:56:22;;;;;;;0.60;0.60;;;;;;;18.69;23.02;96004.75;5092240;28;20940;-49
2022/03/22 09:58:52;;;;;;;1.00;0.50;;;;;;;18.99;23.48;96159.88;5093261;28;20412;-49
2022/03/22 10:01:21;;;;;;;0.80;0.50;;;;;;;19.04;23.94;96167.00;5093062;28;20511;-49
2022/03/22 10:04:00;;;;;;;0.60;0.60;;;;;;;19.51;22.77;96165.69;5092592;28;20491;-48
2022/03/22 10:06:29;;;;;;;0.40;0.40;;;;;;;19.62;22.58;96157.09;5092909;28;20432;-49
2022/03/22 10:08:58;;;;;;;0.40;0.30;;;;;;;19.41;23.19;96160.56;5091921;28;20527;-49
2022/03/22 10:11:39;;;;;;;0.50;0.40;;;;;;;18.34;23.88;96151.19;5092569;28;20830;-49
2022/03/22 10:14:10;;;;;;;0.60;0.60;;;;;;;18.71;23.54;96147.56;5092766;28;20464;-48
2022/03/22 10:16:50;;;;;;;0.60;0.60;;;;;;;20.30;22.50;96117.44;5092867;28;20478;-49
2022/03/22 10:19:20;;;;;;;0.53;0.53;;;;;;;21.11;20.84;96124.00;5092556;28;20426;-49
2022/03/22 10:21:49;;;;;;;0.50;0.30;;;;;;;22.11;20.48;96118.03;5092457;28;20519;-49
2022/03/22 10:24:18;;;;;;;0.83;0.83;;;;;;;19.69;21.72;96108.25;5092423;28;20476;-49
2022/03/22 10:26:47;;;;;;;0.43;0.43;;;;;;;19.30;22.19;96126.94;5092319;28;20452;-49
2022/03/22 10:29:17;;;;;;;0.80;0.80;;;;;;;20.56;22.29;96121.81;5092599;28;20475;-49
2022/03/22 10:31:46;;;;;;;2.97;0.40;;;;;;;20.58;21.37;96126.88;5092790;28;20789;-48
2022/03/22 10:34:16;;;;;;;1.00;1.00;;;;;;;21.44;21.22;96117.84;5092377;28;20493;-48
2022/03/22 10:36:45;;;;;;;0.40;0.33;;;;;;;20.85;20.72;96110.47;5092382;28;20854;-54
2022/03/22 10:39:14;;;;;;;0.70;0.60;;;;;;;20.30;21.41;96117.44;5092205;28;20464;-55
2022/03/22 10:41:43;;;;;;;2.60;1.00;;;;;;;21.19;21.33;96048.53;5092246;28;20421;-55
2022/03/22 10:44:14;;;;;;;0.67;0.63;;;;;;;21.21;21.55;96105.63;5092161;28;21058;-55
2022/03/22 10:46:46;;;;;;;0.73;0.60;;;;;;;19.71;22.07;96097.97;5091963;28;20869;-55
2022/03/22 10:49:17;;;;;;;1.17;1.07;;;;;;;21.02;21.28;96096.22;5092356;28;20424;-55
2022/03/22 10:52:01;;;;;;;1.10;0.33;;;;;;;20.57;21.73;96095.66;5092036;28;20928;-55
2022/03/22 10:54:29;;;;;;;1.13;0.43;;;;;;;20.40;21.60;96106.38;5091392;28;20451;-55
2022/03/22 10:56:59;;;;;;;0.50;0.40;;;;;;;21.82;21.32;96082.06;5091609;28;20416;-55
2022/03/22 10:59:28;;;;;;;0.93;0.93;;;;;;;21.41;20.84;96088.00;5092017;28;20428;-56
2022/03/22 11:01:58;;;;;;;0.70;0.57;;;;;;;20.50;21.08;96100.72;5091838;28;20489;-55
2022/03/22 11:04:27;;;;;;;0.50;0.50;;;;;;;20.31;21.38;96101.00;5091957;28;20468;-54
2022/03/22 11:07:03;;;;;;;0.57;0.57;;;;;;;19.64;21.81;96111.06;5091956;28;20464;-54
2022/03/22 11:09:33;;;;;;;0.40;0.37;;;;;;;20.19;21.71;96084.59;5091997;28;20500;-55
2022/03/22 11:12:02;;;;;;;0.40;0.30;;;;;;;18.93;22.45;96101.94;5092156;28;20462;-55
2022/03/22 11:14:32;;;;;;;0.53;0.50;;;;;;;19.26;22.47;96099.06;5092066;28;20420;-55
2022/03/22 11:17:02;;;;;;;0.40;0.30;;;;;;;20.91;21.63;96098.44;5091792;28;20511;-54
2022/03/22 11:19:32;;;;;;;2.10;2.00;;;;;;;20.53;21.60;96100.09;5091748;28;20441;-54
2022/03/22 11:22:06;;;;;;;0.40;0.30;;;;;;;20.53;21.00;96106.28;5091837;28;20428;-54
2022/03/22 11:24:37;;;;;;;0.50;0.40;;;;;;;19.14;22.52;96110.34;5091858;28;20979;-55
2022/03/22 11:27:08;;;;;;;0.60;0.60;;;;;;;18.44;23.53;96099.22;5091914;28;20498;-55
2022/03/22 11:29:40;;;;;;;0.40;0.30;;;;;;;18.70;23.32;96099.50;5091910;28;20428;-55
2022/03/22 11:34:58;;;;;;;0.50;0.40;;;;;;;20.41;21.54;96091.84;5091955;28;20452;-55
2022/03/22 11:37:30;;;;;;;17.70;0.90;;;;;;;19.93;21.37;96076.44;5092259;28;20526;-53
2022/03/22 11:42:53;;;;;;;0.93;0.93;;;;;;;19.67;22.17;96072.78;5092260;28;20436;-54
2022/03/22 11:45:22;;;;;;;0.60;0.60;;;;;;;19.48;22.05;96073.00;5091423;28;20495;-54
2022/03/22 11:47:55;;;;;;;0.40;0.30;;;;;;;18.03;24.11;96082.31;5091808;28;20932;-56
2022/03/22 11:50:24;;;;;;;0.40;0.30;;;;;;;17.80;23.86;96076.03;5091669;28;20511;-53
2022/03/22 11:53:00;;;;;;;1.03;1.03;;;;;;;18.26;23.68;96092.06;5091500;28;20435;-53
2022/03/22 11:55:30;;;;;;;0.40;0.30;;;;;;;18.30;23.58;96050.13;5092084;28;20459;-53
2022/03/22 11:58:08;;;;;;;0.50;0.50;;;;;;;18.65;23.43;96056.66;5091957;28;20474;-54
2022/03/22 12:00:45;;;;;;;0.40;0.30;;;;;;;19.05;23.23;96055.72;5091879;28;20424;-54
2022/03/22 12:03:16;;;;;;;0.30;0.30;;;;;;;18.99;22.79;96052.38;5091616;28;20420;-54
2022/03/22 12:05:45;;;;;;;0.40;0.30;;;;;;;17.89;23.17;96058.16;5091698;28;21044;-54
2022/03/22 12:08:16;;;;;;;0.90;0.67;;;;;;;17.58;23.48;96025.75;5091105;28;21079;-54
2022/03/22 12:10:47;;;;;;;0.50;0.40;;;;;;;18.76;22.93;96015.84;5091329;28;20424;-55
2022/03/22 12:13:15;;;;;;;1.07;0.60;;;;;;;19.29;22.87;96009.75;5091786;28;20600;-55
2022/03/22 12:15:48;;;;;;;0.57;0.53;;;;;;;18.46;22.83;95953.97;5091229;28;20952;-54
2022/03/22 12:18:18;;;;;;;0.50;0.40;;;;;;;17.63;23.63;96022.22;5091435;28;20439;-54
2022/03/22 12:20:47;;;;;;;0.40;0.30;;;;;;;17.97;23.96;96024.50;5091568;28;20440;-54
2022/03/22 12:23:19;;;;;;;0.50;0.40;;;;;;;17.66;24.22;96027.75;5091612;28;20564;-54
2022/03/22 12:25:51;;;;;;;0.63;0.63;;;;;;;17.49;24.51;96008.75;5091320;28;20500;-54
2022/03/22 12:28:20;;;;;;;0.77;0.77;;;;;;;17.25;24.51;96029.53;5091479;28;20489;-53